createdAt,value
2023-03-29T00:00:12.238Z,5.82
2023-03-29T00:02:40.171Z,5.73
2023-03-29T00:05:09.874Z,5.71
2023-03-29T00:07:37.604Z,5.82
2023-03-29T00:10:07.566Z,6.03
2023-03-29T00:12:35.487Z,5.60
2023-03-29T00:15:03.602Z,6.20
2023-03-29T00:17:32.700Z,5.68
2023-03-29T00:20:00.659Z,5.41
2023-03-29T00:22:28.414Z,5.62
2023-03-29T00:24:56.439Z,5.59
2023-03-29T00:27:24.162Z,6.79
2023-03-29T00:29:51.895Z,5.90
2023-03-29T00:32:19.674Z,6.59
2023-03-29T00:34:50.821Z,6.59
2023-03-29T00:37:19.012Z,6.23
2023-03-29T00:39:48.282Z,6.86
2023-03-29T00:42:18.616Z,6.57
2023-03-29T00:45:18.793Z,6.86
2023-03-29T00:47:49.669Z,6.48
2023-03-29T00:50:22.310Z,5.82
2023-03-29T00:52:55.511Z,6.43
2023-03-29T00:55:25.824Z,5.84
2023-03-29T00:57:57.012Z,6.39
2023-03-29T01:00:32.278Z,5.83
2023-03-29T01:03:02.733Z,5.96
2023-03-29T01:05:37.661Z,5.97
2023-03-29T01:08:11.156Z,5.82
2023-03-29T01:10:43.206Z,5.91
2023-03-29T01:13:14.492Z,5.96
2023-03-29T01:15:45.528Z,6.12
2023-03-29T01:18:13.927Z,5.56
2023-03-29T01:20:52.606Z,6.21
2023-03-29T01:23:46.567Z,5.85
2023-03-29T01:26:24.948Z,6.13
2023-03-29T01:28:59.566Z,6.33
2023-03-29T01:31:29.640Z,5.87
2023-03-29T01:34:03.810Z,6.56
2023-03-29T01:36:38.942Z,6.47
2023-03-29T01:39:08.045Z,6.46
2023-03-29T01:41:48.188Z,6.59
2023-03-29T01:44:22.269Z,6.28
2023-03-29T01:46:57.508Z,6.50
2023-03-29T01:49:29.654Z,6.51
2023-03-29T01:52:02.203Z,6.23
2023-03-29T01:54:34.185Z,6.36
2023-03-29T01:57:04.707Z,6.83
2023-03-29T01:59:36.918Z,6.25
2023-03-29T02:02:11.302Z,6.14
2023-03-29T02:04:44.736Z,6.29
2023-03-29T02:07:13.806Z,6.55
2023-03-29T02:09:42.055Z,6.19
2023-03-29T02:12:11.348Z,6.21
2023-03-29T02:14:40.493Z,5.86
2023-03-29T02:17:18.324Z,6.36
2023-03-29T02:19:50.129Z,6.48
2023-03-29T02:22:24.188Z,6.49
2023-03-29T02:24:59.087Z,6.99
2023-03-29T02:27:29.096Z,6.25
2023-03-29T02:29:58.496Z,6.14
2023-03-29T02:32:32.734Z,6.07
2023-03-29T02:35:06.652Z,5.89
2023-03-29T02:37:41.033Z,6.13
2023-03-29T02:40:12.652Z,6.62
2023-03-29T02:42:41.515Z,6.29
2023-03-29T02:45:13.350Z,6.66
2023-03-29T02:47:46.373Z,6.71
2023-03-29T02:50:14.213Z,6.65
2023-03-29T02:52:47.152Z,6.32
2023-03-29T02:55:18.784Z,6.26
2023-03-29T02:57:46.627Z,6.53
2023-03-29T03:00:20.140Z,6.39
2023-03-29T03:02:50.817Z,6.43
2023-03-29T03:05:19.350Z,6.17
2023-03-29T03:07:47.161Z,6.46
2023-03-29T03:10:15.136Z,6.54
2023-03-29T03:12:42.881Z,6.56
2023-03-29T03:15:11.243Z,6.36
2023-03-29T03:17:40.468Z,6.70
2023-03-29T03:20:12.675Z,6.61
2023-03-29T03:22:41.918Z,6.40
2023-03-29T03:25:11.407Z,6.23
2023-03-29T03:27:40.054Z,7.47
2023-03-29T03:30:09.173Z,7.31
2023-03-29T03:32:37.593Z,7.03
2023-03-29T03:35:08.003Z,7.20
2023-03-29T03:37:35.713Z,7.01
2023-03-29T03:40:03.784Z,7.29
2023-03-29T03:42:31.541Z,6.50
2023-03-29T03:44:59.621Z,6.35
2023-03-29T03:47:27.359Z,7.07
2023-03-29T03:49:55.510Z,6.51
2023-03-29T03:52:25.252Z,6.80
2023-03-29T03:54:53.035Z,6.26
2023-03-29T03:57:20.850Z,6.84
2023-03-29T03:59:48.996Z,6.21
2023-03-29T04:02:16.733Z,6.54
2023-03-29T04:04:44.459Z,6.76
2023-03-29T04:07:14.214Z,6.64
2023-03-29T04:09:43.304Z,6.68
2023-03-29T04:12:11.762Z,6.46
2023-03-29T04:14:39.751Z,6.87
2023-03-29T04:17:07.941Z,7.02
2023-03-29T04:19:36.000Z,6.97
2023-03-29T04:22:03.730Z,6.52
2023-03-29T04:24:31.481Z,6.63
2023-03-29T04:27:00.552Z,6.19
2023-03-29T04:29:28.287Z,6.00
2023-03-29T04:31:56.461Z,6.11
2023-03-29T04:34:24.300Z,5.83
2023-03-29T04:36:52.032Z,5.85
2023-03-29T04:39:19.913Z,5.58
2023-03-29T04:41:48.504Z,5.55
2023-03-29T04:44:17.948Z,5.82
2023-03-29T04:46:45.710Z,5.49
2023-03-29T04:49:13.601Z,5.82
2023-03-29T04:51:41.319Z,5.88
2023-03-29T04:54:09.018Z,5.45
2023-03-29T04:56:36.820Z,5.55
2023-03-29T04:59:04.675Z,5.65
2023-03-29T05:01:33.836Z,5.82
2023-03-29T05:04:02.499Z,5.90
2023-03-29T05:06:31.090Z,5.55
2023-03-29T05:08:59.007Z,5.85
2023-03-29T05:11:27.627Z,5.88
2023-03-29T05:13:58.450Z,6.18
2023-03-29T05:16:26.438Z,5.65
2023-03-29T05:18:55.887Z,5.79
2023-03-29T05:21:24.029Z,5.95
2023-03-29T05:23:51.767Z,5.78
2023-03-29T05:26:19.604Z,6.24
2023-03-29T05:28:47.296Z,6.15
2023-03-29T05:31:16.981Z,6.02
2023-03-29T05:33:45.364Z,6.51
2023-03-29T05:36:16.342Z,6.46
2023-03-29T05:38:46.608Z,5.90
2023-03-29T05:41:15.843Z,6.32
2023-03-29T05:43:43.563Z,6.14
2023-03-29T05:46:12.372Z,6.12
2023-03-29T05:48:40.153Z,6.04
2023-03-29T05:51:08.328Z,6.11
2023-03-29T05:53:37.824Z,5.72
2023-03-29T05:56:06.606Z,6.61
2023-03-29T05:58:34.291Z,5.85
2023-03-29T06:01:05.515Z,6.20
2023-03-29T06:03:33.640Z,6.06
2023-03-29T06:06:03.823Z,6.14
2023-03-29T06:08:32.528Z,6.36
2023-03-29T06:11:04.908Z,6.69
2023-03-29T06:13:34.500Z,6.52
2023-03-29T06:16:02.469Z,6.51
2023-03-29T06:18:30.210Z,6.39
2023-03-29T06:20:57.944Z,6.77
2023-03-29T06:23:25.957Z,6.02
2023-03-29T06:25:55.177Z,6.26
2023-03-29T06:28:25.029Z,6.66
2023-03-29T06:30:54.027Z,6.06
2023-03-29T06:33:21.771Z,6.55
2023-03-29T06:35:50.102Z,7.11
2023-03-29T06:38:17.903Z,6.80
2023-03-29T06:40:45.802Z,7.13
2023-03-29T06:43:14.079Z,7.46
2023-03-29T06:45:43.812Z,7.16
2023-03-29T06:48:12.256Z,6.60
2023-03-29T06:50:40.084Z,6.81
2023-03-29T06:53:07.857Z,6.88
2023-03-29T06:55:36.071Z,6.83
2023-03-29T06:58:04.232Z,6.99
2023-03-29T07:00:31.983Z,7.57
2023-03-29T07:03:06.632Z,7.29
2023-03-29T07:05:36.354Z,7.47
2023-03-29T07:08:13.946Z,7.36
2023-03-29T07:10:43.794Z,7.26
2023-03-29T07:13:13.598Z,7.45
2023-03-29T07:15:42.437Z,7.41
2023-03-29T07:18:12.509Z,7.44
2023-03-29T07:20:41.753Z,7.69
2023-03-29T07:23:10.567Z,8.10
2023-03-29T07:25:39.358Z,7.78
2023-03-29T07:28:07.414Z,7.84
2023-03-29T07:30:35.695Z,7.85
2023-03-29T07:33:04.442Z,7.68
2023-03-29T07:35:33.717Z,8.12
2023-03-29T07:38:01.509Z,8.31
2023-03-29T07:40:29.460Z,7.79
2023-03-29T07:42:58.764Z,8.29
2023-03-29T07:45:29.084Z,8.62
2023-03-29T07:47:58.907Z,8.24
2023-03-29T07:50:27.082Z,8.32
2023-03-29T07:52:56.863Z,8.90
2023-03-29T07:55:24.678Z,8.51
2023-03-29T07:57:53.560Z,8.21
2023-03-29T08:00:22.585Z,8.33
2023-03-29T08:02:52.268Z,8.92
2023-03-29T08:05:37.572Z,9.04
2023-03-29T08:08:07.950Z,9.04
2023-03-29T08:10:37.293Z,9.07
2023-03-29T08:13:07.273Z,9.12
2023-03-29T08:15:35.700Z,9.00
2023-03-29T08:18:03.434Z,8.87
2023-03-29T08:20:32.172Z,8.87
2023-03-29T08:22:59.913Z,9.46
2023-03-29T08:25:29.066Z,8.62
2023-03-29T08:27:57.156Z,8.81
2023-03-29T08:30:25.026Z,9.33
2023-03-29T08:32:55.192Z,9.20
2023-03-29T08:35:23.732Z,9.36
2023-03-29T08:37:51.499Z,9.32
2023-03-29T08:40:22.731Z,9.52
2023-03-29T08:43:25.947Z,9.63
2023-03-29T08:46:08.583Z,9.60
2023-03-29T08:48:42.259Z,9.02
2023-03-29T08:51:18.458Z,9.45
2023-03-29T08:53:49.342Z,10.22
2023-03-29T08:56:21.498Z,9.86
2023-03-29T08:58:52.410Z,10.60
2023-03-29T09:01:23.756Z,9.90
2023-03-29T09:04:01.316Z,10.58
2023-03-29T09:06:29.115Z,10.72
2023-03-29T09:08:57.324Z,10.55
2023-03-29T09:11:47.701Z,10.92
2023-03-29T09:14:32.859Z,10.75
2023-03-29T09:17:08.760Z,10.58
2023-03-29T09:19:43.797Z,10.69
2023-03-29T09:22:23.643Z,11.33
2023-03-29T09:25:03.297Z,10.30
2023-03-29T09:27:38.880Z,11.29
2023-03-29T09:30:17.184Z,10.63
2023-03-29T09:32:52.916Z,9.99
2023-03-29T09:35:24.535Z,11.11
2023-03-29T09:37:54.245Z,10.70
2023-03-29T09:40:25.677Z,10.51
2023-03-29T09:42:56.621Z,11.09
2023-03-29T09:45:24.964Z,11.33
2023-03-29T09:47:58.054Z,11.28
2023-03-29T09:50:32.344Z,11.44
2023-03-29T09:53:01.087Z,10.40
2023-03-29T09:55:32.341Z,11.16
2023-03-29T09:58:03.491Z,11.15
2023-03-29T10:00:31.216Z,10.79
2023-03-29T10:03:00.733Z,10.87
2023-03-29T10:05:33.230Z,10.88
2023-03-29T10:08:02.355Z,9.70
2023-03-29T10:10:32.364Z,10.42
2023-03-29T10:13:02.632Z,10.03
2023-03-29T10:15:31.551Z,10.37
2023-03-29T10:18:03.422Z,11.08
2023-03-29T10:20:31.614Z,10.31
2023-03-29T10:23:00.763Z,9.91
2023-03-29T10:25:32.851Z,9.62
2023-03-29T10:28:06.062Z,10.31
2023-03-29T10:30:38.608Z,10.20
2023-03-29T10:33:17.510Z,10.38
2023-03-29T10:35:45.802Z,10.09
2023-03-29T10:38:15.837Z,10.65
2023-03-29T10:40:47.281Z,10.37
2023-03-29T10:43:22.783Z,11.46
2023-03-29T10:45:52.618Z,11.84
2023-03-29T10:48:26.371Z,11.20
2023-03-29T10:50:54.166Z,11.18
2023-03-29T10:53:26.170Z,10.91
2023-03-29T10:56:07.574Z,11.03
2023-03-29T10:58:43.486Z,10.92
2023-03-29T11:01:18.697Z,10.88
2023-03-29T11:04:05.668Z,10.68
2023-03-29T11:06:39.873Z,10.11
2023-03-29T11:09:18.713Z,11.13
2023-03-29T11:12:15.035Z,11.72
2023-03-29T11:14:56.899Z,11.70
2023-03-29T11:17:41.948Z,11.48
2023-03-29T11:20:20.598Z,11.13
2023-03-29T11:22:53.795Z,10.87
2023-03-29T11:25:30.172Z,11.20
2023-03-29T11:28:07.563Z,10.61
2023-03-29T11:30:42.870Z,11.51
2023-03-29T11:33:23.107Z,12.10
2023-03-29T11:36:02.421Z,12.39
2023-03-29T11:38:37.089Z,12.34
2023-03-29T11:41:15.793Z,12.64
2023-03-29T11:43:47.753Z,12.74
2023-03-29T11:46:20.014Z,12.45
2023-03-29T11:48:52.879Z,11.59
2023-03-29T11:51:26.321Z,11.43
2023-03-29T11:54:03.994Z,11.90
2023-03-29T11:56:38.029Z,11.79
2023-03-29T11:59:12.662Z,11.81
2023-03-29T12:01:46.863Z,11.90
2023-03-29T12:04:22.849Z,11.32
2023-03-29T12:06:59.483Z,11.95
2023-03-29T12:09:33.467Z,11.38
2023-03-29T12:12:09.979Z,11.84
2023-03-29T12:14:50.163Z,11.81
2023-03-29T12:17:21.632Z,12.84
2023-03-29T12:19:54.449Z,11.90
2023-03-29T12:22:24.748Z,11.54
2023-03-29T12:24:54.764Z,11.65
2023-03-29T12:27:28.901Z,11.87
2023-03-29T12:30:24.739Z,11.41
2023-03-29T12:33:09.872Z,12.09
2023-03-29T12:35:47.288Z,11.78
2023-03-29T12:38:22.004Z,12.09
2023-03-29T12:40:56.287Z,12.57
2023-03-29T12:43:26.211Z,12.21
2023-03-29T12:45:57.193Z,12.42
2023-03-29T12:48:27.725Z,12.48
2023-03-29T12:51:00.896Z,13.68
2023-03-29T12:53:35.751Z,13.23
2023-03-29T12:56:16.147Z,13.99
2023-03-29T12:58:54.358Z,13.64
2023-03-29T13:01:29.595Z,12.61
2023-03-29T13:04:14.355Z,12.55
2023-03-29T13:09:51.952Z,12.57
2023-03-29T13:12:26.756Z,12.42
2023-03-29T13:14:56.633Z,12.01
2023-03-29T13:17:28.801Z,12.78
2023-03-29T13:20:15.461Z,12.83
2023-03-29T13:22:54.878Z,12.17
2023-03-29T13:25:41.305Z,12.44
2023-03-29T13:28:18.504Z,12.12
2023-03-29T13:30:54.238Z,12.42
2023-03-29T13:33:39.607Z,12.07
2023-03-29T13:36:15.540Z,11.60
2023-03-29T13:38:49.361Z,12.06
2023-03-29T13:41:44.283Z,11.98
2023-03-29T13:44:27.212Z,12.05
2023-03-29T13:47:16.332Z,12.27
2023-03-29T13:49:49.709Z,11.96
2023-03-29T13:52:25.609Z,12.27
2023-03-29T13:54:58.206Z,11.84
2023-03-29T13:57:34.043Z,12.32
2023-03-29T14:00:11.781Z,11.75
2023-03-29T14:02:47.324Z,12.27
2023-03-29T14:05:20.048Z,11.38
2023-03-29T14:07:51.528Z,11.60
2023-03-29T14:10:24.857Z,11.26
2023-03-29T14:12:56.811Z,11.88
2023-03-29T14:15:27.022Z,11.77
2023-03-29T14:17:58.974Z,11.46
2023-03-29T14:20:28.956Z,11.51
2023-03-29T14:22:56.661Z,12.19
2023-03-29T14:25:25.558Z,11.87
2023-03-29T14:27:54.684Z,12.06
2023-03-29T14:30:27.946Z,12.03
2023-03-29T14:32:56.793Z,11.57
2023-03-29T14:35:32.819Z,11.58
2023-03-29T14:38:01.586Z,11.53
2023-03-29T14:40:32.537Z,11.54
2023-03-29T14:43:07.135Z,12.14
2023-03-29T14:45:35.261Z,11.97
2023-03-29T14:48:04.347Z,12.55
2023-03-29T14:50:32.472Z,11.95
2023-03-29T14:53:02.691Z,11.58
2023-03-29T14:55:31.020Z,11.77
2023-03-29T14:58:00.193Z,12.42
2023-03-29T15:00:35.001Z,11.87
2023-03-29T15:03:03.956Z,11.61
2023-03-29T15:05:36.331Z,11.87
2023-03-29T15:08:04.759Z,11.93
2023-03-29T15:10:34.360Z,12.09
2023-03-29T15:13:04.132Z,12.21
2023-03-29T15:15:35.667Z,12.69
2023-03-29T15:18:05.503Z,12.94
2023-03-29T15:20:35.614Z,12.52
2023-03-29T15:23:09.486Z,12.54
2023-03-29T15:25:39.632Z,12.11
2023-03-29T15:28:07.569Z,12.48
2023-03-29T15:30:40.602Z,12.71
2023-03-29T15:33:16.549Z,12.57
2023-03-29T15:35:49.827Z,11.94
2023-03-29T15:38:18.188Z,12.09
2023-03-29T15:40:46.161Z,12.28
2023-03-29T15:43:14.259Z,11.90
2023-03-29T15:45:43.801Z,12.52
2023-03-29T15:48:16.403Z,11.73
2023-03-29T15:50:45.264Z,12.06
2023-03-29T15:53:15.414Z,12.17
2023-03-29T15:55:45.817Z,12.03
2023-03-29T15:58:16.029Z,12.07
2023-03-29T16:00:51.165Z,12.27
2023-03-29T16:03:19.300Z,12.18
2023-03-29T16:05:47.490Z,12.06
2023-03-29T16:08:15.371Z,12.64
2023-03-29T16:10:44.733Z,12.38
2023-03-29T16:13:14.644Z,12.39
2023-03-29T16:15:43.359Z,12.11
2023-03-29T16:18:12.500Z,12.25
2023-03-29T16:20:40.534Z,12.02
2023-03-29T16:23:09.802Z,12.48
2023-03-29T16:25:39.858Z,12.15
2023-03-29T16:28:09.054Z,12.07
2023-03-29T16:30:38.361Z,11.92
2023-03-29T16:33:08.598Z,11.95
2023-03-29T16:35:41.099Z,12.15
2023-03-29T16:38:09.739Z,12.57
2023-03-29T16:40:38.434Z,11.99
2023-03-29T16:43:06.624Z,11.75
2023-03-29T16:45:34.329Z,12.33
2023-03-29T16:48:02.607Z,11.98
2023-03-29T16:50:32.804Z,12.15
2023-03-29T16:53:01.892Z,12.37
2023-03-29T16:55:29.791Z,11.77
2023-03-29T16:57:57.563Z,11.53
2023-03-29T17:00:25.817Z,11.56
2023-03-29T17:02:53.667Z,12.21
2023-03-29T17:05:21.457Z,11.84
2023-03-29T17:07:49.641Z,11.71
2023-03-29T17:10:18.877Z,11.48
2023-03-29T17:12:46.670Z,11.70
2023-03-29T17:15:14.744Z,12.06
2023-03-29T17:17:42.667Z,12.28
2023-03-29T17:20:12.882Z,12.19
2023-03-29T17:22:41.055Z,11.84
2023-03-29T17:25:10.065Z,12.29
2023-03-29T17:27:39.225Z,11.73
2023-03-29T17:30:08.429Z,11.98
2023-03-29T17:32:36.740Z,12.04
2023-03-29T17:35:04.939Z,12.04
2023-03-29T17:37:32.704Z,12.08
2023-03-29T17:40:00.760Z,11.92
2023-03-29T17:42:28.585Z,12.02
2023-03-29T17:44:57.740Z,11.87
2023-03-29T17:47:25.594Z,11.84
2023-03-29T17:49:53.900Z,12.15
2023-03-29T17:52:21.658Z,12.14
2023-03-29T17:54:49.979Z,12.27
2023-03-29T17:57:17.852Z,12.34
2023-03-29T17:59:45.813Z,11.88
2023-03-29T18:02:17.994Z,12.58
2023-03-29T18:04:46.142Z,12.47
2023-03-29T18:07:14.217Z,12.17
2023-03-29T18:09:42.086Z,11.91
2023-03-29T18:12:10.275Z,12.37
2023-03-29T18:14:40.895Z,12.52
2023-03-29T18:17:08.665Z,12.58
2023-03-29T18:19:37.801Z,12.47
2023-03-29T18:22:05.740Z,12.11
2023-03-29T18:24:33.722Z,12.44
2023-03-29T18:27:01.479Z,12.20
2023-03-29T18:29:29.285Z,12.50
2023-03-29T18:31:57.117Z,12.04
2023-03-29T18:34:24.880Z,12.41
2023-03-29T18:36:54.012Z,12.54
2023-03-29T18:39:21.978Z,12.42
2023-03-29T18:41:49.728Z,12.82
2023-03-29T18:44:17.820Z,12.98
2023-03-29T18:46:45.541Z,12.95
2023-03-29T18:49:13.658Z,12.09
2023-03-29T18:51:42.252Z,12.64
2023-03-29T18:54:11.635Z,12.82
2023-03-29T18:56:39.422Z,12.69
2023-03-29T18:59:07.247Z,12.67
2023-03-29T19:01:35.071Z,12.29
2023-03-29T19:04:03.019Z,12.71
2023-03-29T19:06:31.701Z,12.28
2023-03-29T19:09:01.942Z,12.38
2023-03-29T19:11:31.224Z,12.79
2023-03-29T19:13:59.045Z,12.82
2023-03-29T19:16:27.542Z,12.66
2023-03-29T19:18:55.777Z,12.38
2023-03-29T19:21:23.732Z,12.26
2023-03-29T19:23:52.961Z,12.67
2023-03-29T19:26:20.758Z,12.44
2023-03-29T19:28:49.988Z,12.05
2023-03-29T19:31:17.761Z,12.18
2023-03-29T19:33:45.576Z,12.01
2023-03-29T19:36:13.510Z,12.12
2023-03-29T19:38:41.766Z,11.82
2023-03-29T19:41:09.588Z,11.90
2023-03-29T19:43:37.347Z,12.17
2023-03-29T19:46:11.662Z,12.17
2023-03-29T19:48:40.426Z,12.34
2023-03-29T19:51:08.859Z,12.40
2023-03-29T19:53:38.624Z,12.26
2023-03-29T19:56:07.817Z,12.35
2023-03-29T19:58:35.731Z,12.12
2023-03-29T20:01:03.763Z,11.92
2023-03-29T20:03:34.163Z,12.17
2023-03-29T20:06:02.574Z,12.01
2023-03-29T20:08:30.549Z,11.71
2023-03-29T20:10:59.571Z,11.68
2023-03-29T20:13:37.486Z,12.13
2023-03-29T20:16:07.422Z,11.49
2023-03-29T20:18:38.310Z,12.34
2023-03-29T20:21:06.465Z,12.21
2023-03-29T20:23:35.088Z,12.01
2023-03-29T20:26:03.191Z,12.27
2023-03-29T20:28:31.496Z,11.82
2023-03-29T20:31:04.833Z,11.99
2023-03-29T20:33:32.936Z,12.35
2023-03-29T20:36:02.213Z,11.94
2023-03-29T20:38:30.003Z,12.10
2023-03-29T20:40:57.772Z,11.80
2023-03-29T20:43:25.525Z,11.46
2023-03-29T20:45:54.223Z,11.51
2023-03-29T20:48:23.474Z,11.11
2023-03-29T20:50:52.345Z,11.42
2023-03-29T20:53:21.455Z,11.38
2023-03-29T20:55:49.251Z,11.26
2023-03-29T20:58:16.981Z,11.28
2023-03-29T21:00:45.322Z,11.60
2023-03-29T21:03:13.300Z,11.44
2023-03-29T21:05:41.112Z,11.33
2023-03-29T21:08:08.871Z,11.37
2023-03-29T21:10:38.065Z,11.30
2023-03-29T21:13:05.936Z,11.08
2023-03-29T21:15:33.788Z,11.25
2023-03-29T21:18:01.940Z,11.16
2023-03-29T21:20:29.882Z,11.39
2023-03-29T21:22:58.062Z,11.23
2023-03-29T21:25:25.865Z,11.20
2023-03-29T21:27:54.985Z,11.51
2023-03-29T21:30:22.796Z,11.18
2023-03-29T21:32:50.950Z,11.58
2023-03-29T21:35:18.981Z,11.48
2023-03-29T21:37:46.798Z,11.43
2023-03-29T21:40:15.240Z,11.31
2023-03-29T21:42:43.063Z,11.32
2023-03-29T21:45:13.018Z,11.75
2023-03-29T21:47:40.789Z,11.49
2023-03-29T21:50:09.404Z,11.33
2023-03-29T21:52:37.786Z,11.07
2023-03-29T21:55:06.202Z,11.24
2023-03-29T21:57:34.057Z,11.38
2023-03-29T22:00:01.805Z,11.22
2023-03-29T22:02:31.229Z,11.42
2023-03-29T22:04:59.009Z,11.76
2023-03-29T22:07:26.878Z,11.02
2023-03-29T22:09:54.763Z,11.53
2023-03-29T22:12:22.762Z,11.43
2023-03-29T22:14:50.501Z,11.39
2023-03-29T22:17:18.625Z,11.33
2023-03-29T22:19:47.839Z,11.37
2023-03-29T22:22:16.304Z,11.37
2023-03-29T22:24:44.083Z,11.39
2023-03-29T22:27:12.700Z,11.19
2023-03-29T22:29:40.534Z,11.12
2023-03-29T22:32:08.503Z,11.46
2023-03-29T22:34:36.351Z,11.48
2023-03-29T22:37:05.541Z,11.29
2023-03-29T22:39:35.731Z,10.86
2023-03-29T22:42:03.500Z,11.16
2023-03-29T22:44:31.867Z,10.93
2023-03-29T22:46:59.743Z,11.33
2023-03-29T22:49:27.578Z,10.80
2023-03-29T22:51:55.342Z,11.06
2023-03-29T22:54:24.560Z,10.99
2023-03-29T22:56:52.379Z,11.19
2023-03-29T22:59:20.284Z,10.96
2023-03-29T23:01:48.232Z,10.88
2023-03-29T23:04:16.151Z,10.88
2023-03-29T23:06:43.921Z,10.96
2023-03-29T23:09:13.419Z,11.00
2023-03-29T23:11:43.672Z,11.11
2023-03-29T23:14:11.463Z,10.78
2023-03-29T23:16:39.636Z,10.89
2023-03-29T23:19:07.422Z,11.08
2023-03-29T23:21:36.032Z,11.16
2023-03-29T23:24:04.092Z,11.10
2023-03-29T23:26:31.890Z,10.98
2023-03-29T23:29:00.968Z,10.76
2023-03-29T23:31:28.754Z,11.15
2023-03-29T23:33:56.514Z,11.23
2023-03-29T23:36:27.157Z,10.97
2023-03-29T23:38:54.910Z,10.96
2023-03-29T23:41:22.973Z,10.72
2023-03-29T23:43:52.197Z,10.88
2023-03-29T23:46:21.465Z,10.98
2023-03-29T23:48:51.254Z,10.81
2023-03-29T23:51:23.070Z,11.12
2023-03-29T23:53:51.410Z,11.11
2023-03-29T23:56:19.182Z,11.01
2023-03-29T23:58:47.138Z,10.69
